Time;durP1;ratioP1;P1;durP2;ratioP2;P2;SDS_P1;SDS_P2;PMS_P1;PMS_P2;Temp;Humidity;BMP_temperature;BMP_pressure;BME280_temperature;BME280_humidity;BME280_pressure;Samples;Min_cycle;Max_cycle;Signal;HPM_P1;HPM_P2
2022/01/24 00:02:07;;;;;;;26.50;11.80;;;;;;;-3.42;68.70;101187.56;5091828;28;20075;-57
2022/01/24 00:04:36;;;;;;;29.40;12.32;;;;;;;-3.43;68.75;101188.63;5092044;28;20119;-58
2022/01/24 00:07:04;;;;;;;27.67;11.70;;;;;;;-3.44;69.03;101196.97;5092034;28;20614;-58
2022/01/24 00:09:31;;;;;;;28.05;11.27;;;;;;;-3.45;68.75;101207.00;5070247;28;20143;-55
2022/01/24 00:12:05;;;;;;;36.10;11.27;;;;;;;-3.47;68.76;101190.03;5088856;28;20142;-61
2022/01/24 00:17:10;;;;;;;30.70;12.35;;;;;;;-3.48;68.59;101204.69;5088895;28;20499;-61
2022/01/24 00:27:57;;;;;;;22.50;9.30;;;;;;;-3.63;68.98;101198.56;5091941;28;20140;-61
2022/01/24 00:30:25;;;;;;;33.03;10.75;;;;;;;-3.71;69.50;101206.84;5091555;28;20051;-59
2022/01/24 00:32:52;;;;;;;22.77;9.82;;;;;;;-3.72;68.88;101202.47;5090678;28;20058;-57
2022/01/24 00:35:18;;;;;;;25.17;11.23;;;;;;;-3.73;69.20;101198.09;5090431;28;20973;-60
2022/01/24 00:37:45;;;;;;;25.95;11.88;;;;;;;-3.70;69.54;101194.97;5091492;28;20138;-60
2022/01/24 00:40:13;;;;;;;26.85;10.85;;;;;;;-3.73;69.42;101198.09;5091336;28;20137;-58
2022/01/24 00:42:53;;;;;;;32.45;10.68;;;;;;;-3.75;69.27;101197.44;5087411;28;20482;-59
2022/01/24 00:53:39;;;;;;;24.13;9.38;;;;;;;-3.78;68.69;101209.56;5091845;28;20134;-59
2022/01/24 00:56:06;;;;;;;23.17;9.10;;;;;;;-3.80;68.95;101224.38;5091629;28;20087;-59
2022/01/24 00:58:34;;;;;;;29.65;10.57;;;;;;;-3.77;68.65;101218.53;5091404;28;20434;-57
2022/01/24 01:01:01;;;;;;;25.95;9.93;;;;;;;-3.79;68.66;101209.75;5093588;28;20499;-61
2022/01/24 01:03:28;;;;;;;29.90;10.80;;;;;;;-3.78;68.59;101216.88;5094782;28;20055;-60
2022/01/24 01:06:06;;;;;;;24.33;10.40;;;;;;;-3.77;68.91;101208.50;5082733;28;20044;-59
2022/01/24 01:19:41;;;;;;;21.63;8.77;;;;;;;-3.88;68.38;101200.91;5095104;28;20410;-60
2022/01/24 01:22:08;;;;;;;21.67;9.27;;;;;;;-3.90;68.87;101202.16;5094393;28;20048;-60
2022/01/24 01:24:40;;;;;;;23.67;9.20;;;;;;;-3.88;68.67;101198.19;5095211;28;20101;-57
2022/01/24 01:27:18;;;;;;;25.38;9.88;;;;;;;-3.93;68.27;101199.81;5094893;28;20513;-58
2022/01/24 01:29:56;;;;;;;28.10;8.70;;;;;;;-3.97;69.28;101195.81;5094773;28;20421;-60
2022/01/24 01:56:43;;;;;;;17.23;8.02;;;;;;;-4.07;68.75;101223.34;5094300;28;20077;-59
2022/01/24 01:59:10;;;;;;;20.40;8.45;;;;;;;-4.05;68.91;101220.44;5093709;28;20048;-59
2022/01/24 02:01:37;;;;;;;21.10;8.65;;;;;;;-4.05;68.15;101225.88;5094382;28;20046;-59
2022/01/24 02:04:05;;;;;;;20.67;8.48;;;;;;;-4.05;68.72;101217.72;5093516;28;20533;-60
2022/01/24 02:06:33;;;;;;;23.33;8.32;;;;;;;-3.99;68.31;101228.63;5094246;28;20054;-59
2022/01/24 02:09:06;;;;;;;21.52;10.18;;;;;;;-3.97;68.56;101225.69;5093681;28;20515;-59
2022/01/24 02:11:33;;;;;;;21.65;8.40;;;;;;;-3.98;68.31;101232.19;5094295;28;20051;-57
2022/01/24 02:14:06;;;;;;;21.15;8.32;;;;;;;-3.96;68.38;101224.69;5093662;28;20499;-59
2022/01/24 02:16:57;;;;;;;19.15;7.75;;;;;;;-3.99;68.97;101231.34;5094275;28;20487;-59
2022/01/24 02:24:38;;;;;;;17.90;7.65;;;;;;;-3.96;68.51;101235.56;5093508;28;20052;-58
2022/01/24 02:27:06;;;;;;;22.15;8.25;;;;;;;-4.00;68.48;101239.69;5093464;28;20075;-60
2022/01/24 02:32:11;;;;;;;20.08;7.25;;;;;;;-4.03;67.90;101234.63;5089644;28;20044;-60
2022/01/24 02:34:42;;;;;;;20.15;7.22;;;;;;;-4.05;68.58;101220.44;5092172;28;20061;-56
2022/01/24 02:37:12;;;;;;;26.02;7.90;;;;;;;-4.00;68.12;101228.81;5093468;28;20531;-58
2022/01/24 02:53:00;;;;;;;20.75;7.85;;;;;;;-4.11;68.13;101237.53;5090619;28;20059;-57
2022/01/24 02:55:27;;;;;;;15.90;7.40;;;;;;;-4.11;68.13;101234.81;5093152;28;20051;-58
2022/01/24 02:57:54;;;;;;;21.83;8.48;;;;;;;-4.08;68.45;101231.69;5089658;28;20451;-57
2022/01/24 03:00:21;;;;;;;21.95;8.98;;;;;;;-4.04;68.25;101219.38;5092948;28;20048;-59
2022/01/24 03:02:49;;;;;;;19.10;8.13;;;;;;;-4.01;68.40;101232.56;5092027;28;20154;-59
2022/01/24 03:05:16;;;;;;;18.30;7.57;;;;;;;-4.08;68.23;101234.41;5093415;28;20054;-60
2022/01/24 03:07:43;;;;;;;21.70;8.57;;;;;;;-4.09;68.26;101230.00;5092323;28;20054;-60
2022/01/24 03:10:22;;;;;;;19.42;8.35;;;;;;;-4.11;68.37;101226.66;5093067;28;20062;-58
2022/01/24 03:12:58;;;;;;;20.92;7.22;;;;;;;-4.21;68.30;101215.28;5092586;28;20086;-58
2022/01/24 03:15:26;;;;;;;20.63;7.72;;;;;;;-4.31;68.83;101215.63;5092558;28;20044;-62
2022/01/24 03:17:53;;;;;;;21.35;8.60;;;;;;;-4.27;68.23;101216.06;5092733;28;20517;-57
2022/01/24 03:20:20;;;;;;;21.17;7.03;;;;;;;-4.22;68.73;101216.31;5092857;28;20101;-55
2022/01/24 03:22:47;;;;;;;20.52;9.38;;;;;;;-4.21;68.62;101212.56;5092019;28;20055;-54
2022/01/24 03:25:14;;;;;;;21.48;8.98;;;;;;;-4.21;68.39;101218.84;5092868;28;20044;-58
2022/01/24 03:27:41;;;;;;;17.83;7.50;;;;;;;-4.23;68.50;101212.75;5092215;28;20131;-58
2022/01/24 03:30:08;;;;;;;22.20;8.63;;;;;;;-4.20;68.34;101214.25;5092838;28;20127;-54
2022/01/24 03:32:35;;;;;;;21.38;8.48;;;;;;;-4.17;68.72;101211.16;5092153;28;20056;-57
2022/01/24 03:35:07;;;;;;;20.85;7.88;;;;;;;-4.19;68.42;101197.75;5092757;28;20055;-56
2022/01/24 03:37:35;;;;;;;18.73;7.90;;;;;;;-4.16;68.30;101191.94;5091884;28;20048;-57
2022/01/24 03:40:03;;;;;;;18.00;8.68;;;;;;;-4.16;68.27;101194.66;5092233;28;20040;-58
2022/01/24 03:42:31;;;;;;;24.90;8.43;;;;;;;-4.13;68.53;101182.53;5091063;28;20127;-58
2022/01/24 03:45:02;;;;;;;17.90;7.35;;;;;;;-4.10;68.51;101190.28;5090985;28;20131;-57
2022/01/24 03:50:00;;;;;;;25.00;8.75;;;;;;;-4.11;68.44;101188.63;5092064;28;20056;-58
2022/01/24 03:52:30;;;;;;;26.60;9.20;;;;;;;-4.08;68.20;101193.66;5091702;28;20048;-60
2022/01/24 03:54:58;;;;;;;22.55;8.63;;;;;;;-4.11;67.89;101194.06;5092098;28;20134;-55
2022/01/24 03:57:26;;;;;;;21.92;8.52;;;;;;;-4.12;68.50;101184.19;5091651;28;20060;-58
2022/01/24 03:59:53;;;;;;;18.75;7.95;;;;;;;-4.16;68.19;101181.06;5090588;28;20051;-58
2022/01/24 04:02:24;;;;;;;18.05;7.97;;;;;;;-4.16;68.29;101180.22;5091448;28;20503;-59
2022/01/24 04:04:51;;;;;;;15.52;7.45;;;;;;;-4.15;68.21;101188.16;5091534;28;20502;-57
2022/01/24 04:07:19;;;;;;;28.10;8.80;;;;;;;-4.14;68.10;101199.88;5091449;28;20135;-55
2022/01/24 04:09:46;;;;;;;21.55;8.93;;;;;;;-4.16;68.23;101202.78;5088827;28;20138;-59
2022/01/24 04:12:15;;;;;;;24.33;8.57;;;;;;;-4.15;68.49;101196.31;5091492;28;20048;-58
2022/01/24 04:22:29;;;;;;;22.17;8.48;;;;;;;-4.07;68.20;101195.31;5091875;28;20440;-56
2022/01/24 04:25:01;;;;;;;17.45;8.23;;;;;;;-4.10;68.03;101193.84;5091717;28;20048;-59
2022/01/24 04:27:30;;;;;;;28.50;8.85;;;;;;;-4.14;68.12;101194.44;5091227;28;20048;-56
2022/01/24 04:29:57;;;;;;;21.50;7.88;;;;;;;-4.13;67.87;101185.25;5070160;28;20040;-61
2022/01/24 04:32:24;;;;;;;22.38;9.15;;;;;;;-4.10;68.46;101193.84;5087954;28;20098;-59
2022/01/24 04:34:52;;;;;;;17.58;7.97;;;;;;;-4.10;68.12;101193.00;5092115;28;20048;-58
2022/01/24 04:37:18;;;;;;;21.73;8.75;;;;;;;-4.04;68.45;101200.38;5095633;28;20048;-59
2022/01/24 04:39:45;;;;;;;19.90;9.20;;;;;;;-4.04;68.40;101200.38;5092212;28;20056;-59
2022/01/24 04:42:18;;;;;;;21.58;8.23;;;;;;;-4.03;68.25;101196.59;5095242;28;20135;-60
2022/01/24 04:47:48;;;;;;;20.33;8.38;;;;;;;-4.04;68.12;101194.94;5095492;28;20078;-60
2022/01/24 04:52:59;;;;;;;20.38;8.55;;;;;;;-4.07;68.37;101200.75;5095245;28;20097;-58
2022/01/24 04:55:27;;;;;;;20.45;9.00;;;;;;;-4.10;67.85;101201.16;5095743;28;20040;-60
2022/01/24 04:57:53;;;;;;;20.02;7.85;;;;;;;-4.09;68.23;101208.25;5095291;28;20075;-60
2022/01/24 05:00:20;;;;;;;19.92;7.30;;;;;;;-4.15;68.48;101209.03;5095567;28;20058;-60
2022/01/24 05:02:47;;;;;;;18.92;8.77;;;;;;;-4.17;68.80;101209.25;5095010;28;20134;-57
2022/01/24 05:05:19;;;;;;;18.45;7.47;;;;;;;-4.31;68.48;101209.34;5095493;28;20548;-57
2022/01/24 05:07:47;;;;;;;15.38;7.25;;;;;;;-4.40;68.32;101205.09;5095216;28;20097;-59
2022/01/24 05:10:24;;;;;;;24.83;9.18;;;;;;;-4.42;68.73;101208.00;5095136;28;20048;-58
2022/01/24 05:23:39;;;;;;;19.45;7.72;;;;;;;-4.34;68.04;101212.44;5094828;28;20051;-63
2022/01/24 05:26:07;;;;;;;16.48;7.50;;;;;;;-4.37;68.66;101210.13;5094240;28;20083;-62
2022/01/24 05:28:36;;;;;;;20.73;8.32;;;;;;;-4.39;68.51;101217.63;5094797;28;20131;-62
2022/01/24 05:31:04;;;;;;;23.90;7.82;;;;;;;-4.43;68.88;101216.34;5082307;28;20058;-61
2022/01/24 05:33:32;;;;;;;21.20;9.23;;;;;;;-4.50;69.11;101227.13;5094778;28;20465;-63
2022/01/24 05:35:59;;;;;;;19.15;8.98;;;;;;;-4.45;69.35;101226.56;5094707;28;20056;-62
2022/01/24 05:38:26;;;;;;;21.38;8.65;;;;;;;-4.40;68.65;101234.97;5094672;28;20561;-62
2022/01/24 05:40:58;;;;;;;19.85;8.38;;;;;;;-4.40;68.17;101222.22;5094304;28;20044;-63
2022/01/24 05:43:25;;;;;;;22.50;9.93;;;;;;;-4.36;68.49;101228.09;5094660;28;20135;-63
2022/01/24 05:45:52;;;;;;;20.92;8.30;;;;;;;-4.32;68.58;101242.97;5093328;28;20055;-62
2022/01/24 05:48:19;;;;;;;21.42;7.63;;;;;;;-4.31;68.27;101247.38;5094526;28;20052;-61
2022/01/24 05:50:46;;;;;;;19.30;8.65;;;;;;;-4.36;69.11;101244.38;5094237;28;20418;-63
2022/01/24 05:53:13;;;;;;;27.08;10.25;;;;;;;-4.37;68.75;101240.84;5094009;28;20079;-62
2022/01/24 05:55:40;;;;;;;19.75;8.02;;;;;;;-4.36;68.68;101233.53;5094277;28;20143;-62
2022/01/24 05:58:07;;;;;;;24.13;9.50;;;;;;;-4.37;68.59;101226.44;5087440;28;20151;-56
2022/01/24 06:00:34;;;;;;;17.95;8.43;;;;;;;-4.34;68.84;101226.03;5085125;28;20503;-57
2022/01/24 06:03:01;;;;;;;23.20;10.52;;;;;;;-4.35;68.61;101227.09;5089604;28;20036;-59
2022/01/24 06:05:28;;;;;;;25.52;9.43;;;;;;;-4.39;68.78;101223.06;5089500;28;20101;-59
2022/01/24 06:07:55;;;;;;;20.38;8.43;;;;;;;-4.35;68.95;101224.38;5080778;28;20521;-60
2022/01/24 06:10:22;;;;;;;24.50;9.80;;;;;;;-4.35;68.79;101221.66;5091093;28;20048;-60
2022/01/24 06:12:49;;;;;;;20.92;9.13;;;;;;;-4.30;68.92;101224.59;5139595;22;20421;-56
2022/01/24 06:15:16;;;;;;;30.83;10.07;;;;;;;-4.32;69.13;101218.53;5074400;28;20055;-60
2022/01/24 06:17:43;;;;;;;21.60;8.52;;;;;;;-4.35;69.12;101227.91;5077621;28;20264;-58
2022/01/24 06:20:11;;;;;;;23.83;9.13;;;;;;;-4.37;68.91;101226.44;5088478;28;20052;-58
2022/01/24 06:22:40;;;;;;;25.63;9.77;;;;;;;-4.35;69.05;101225.19;5090568;28;20067;-58
2022/01/24 06:25:08;;;;;;;22.48;9.60;;;;;;;-4.33;68.85;101234.00;5091864;28;20090;-61
2022/01/24 06:27:41;;;;;;;21.45;8.65;;;;;;;-4.34;69.16;101231.47;5090042;28;20506;-58
2022/01/24 06:30:09;;;;;;;21.67;7.93;;;;;;;-4.34;68.96;101234.19;5091357;28;20439;-60
2022/01/24 06:32:38;;;;;;;22.35;10.02;;;;;;;-4.32;69.35;101229.41;5091012;28;20044;-58
2022/01/24 06:35:08;;;;;;;20.45;8.13;;;;;;;-4.33;68.80;101231.28;5089861;28;20514;-59
2022/01/24 06:37:36;;;;;;;22.58;9.25;;;;;;;-4.48;69.00;101225.06;5092922;28;20066;-57
2022/01/24 06:40:07;;;;;;;19.20;7.18;;;;;;;-4.55;69.22;101228.75;5093211;28;20052;-59
2022/01/24 06:42:34;;;;;;;21.35;8.20;;;;;;;-4.59;69.27;101232.91;5087586;28;20052;-59
2022/01/24 06:45:01;;;;;;;22.70;8.40;;;;;;;-4.54;69.46;101235.88;5090891;28;20058;-57
2022/01/24 06:47:29;;;;;;;20.60;9.55;;;;;;;-4.51;69.38;101236.31;5091515;28;20036;-53
2022/01/24 06:49:56;;;;;;;24.30;9.85;;;;;;;-4.50;69.52;101229.84;5091263;28;20051;-59
2022/01/24 06:52:23;;;;;;;19.95;7.80;;;;;;;-4.54;68.91;101235.88;5092977;28;20048;-56
2022/01/24 06:54:50;;;;;;;22.83;9.35;;;;;;;-4.57;69.02;101241.69;5092914;28;20052;-58
2022/01/24 06:57:17;;;;;;;27.63;9.93;;;;;;;-4.49;69.18;101239.69;5092123;28;20075;-58
2022/01/24 06:59:45;;;;;;;13.30;5.97;;;;;;;-4.44;69.36;101239.13;5090647;28;20044;-56
2022/01/24 07:02:14;;;;;;;16.02;7.35;;;;;;;-4.60;69.18;101240.19;5092868;28;20044;-57
2022/01/24 07:04:43;;;;;;;21.17;9.05;;;;;;;-4.64;68.98;101240.78;5093005;28;20058;-55
2022/01/24 07:07:11;;;;;;;22.60;8.40;;;;;;;-4.55;68.85;101235.03;5092385;28;20047;-57
2022/01/24 07:09:40;;;;;;;20.88;7.95;;;;;;;-4.49;68.92;101234.25;5090041;28;20087;-55
2022/01/24 07:12:08;;;;;;;27.88;9.10;;;;;;;-4.49;68.74;101245.13;5092294;28;20060;-59
2022/01/24 07:14:35;;;;;;;23.73;9.25;;;;;;;-4.47;69.16;101239.50;5089676;28;20109;-60
2022/01/24 07:17:14;;;;;;;25.88;9.48;;;;;;;-4.43;69.03;101243.50;5090811;28;20059;-58
2022/01/24 07:19:41;;;;;;;21.52;9.15;;;;;;;-4.47;68.49;101237.59;5092152;28;20056;-56
2022/01/24 07:22:08;;;;;;;22.38;9.00;;;;;;;-4.43;68.90;101243.50;5092634;28;20051;-60
2022/01/24 07:24:36;;;;;;;19.20;8.27;;;;;;;-4.41;68.32;101244.97;5092314;28;20048;-57
2022/01/24 07:27:03;;;;;;;22.35;9.30;;;;;;;-4.42;68.81;101247.88;5091874;28;20075;-57
2022/01/24 07:29:30;;;;;;;17.58;7.82;;;;;;;-4.49;68.73;101245.13;5088229;28;20187;-58
2022/01/24 07:31:57;;;;;;;28.27;9.82;;;;;;;-4.60;69.25;101242.91;5091646;28;20056;-57
2022/01/24 07:34:24;;;;;;;22.52;10.05;;;;;;;-4.50;69.19;101242.59;5092345;28;20044;-59
2022/01/24 07:36:52;;;;;;;18.92;8.93;;;;;;;-4.48;68.75;101237.78;5090625;28;20122;-59
2022/01/24 07:39:19;;;;;;;22.63;9.40;;;;;;;-4.45;69.09;101240.13;5092501;28;20044;-58
2022/01/24 07:41:47;;;;;;;19.73;8.75;;;;;;;-4.45;68.72;101242.84;5091611;28;20051;-60
2022/01/24 07:44:15;;;;;;;18.98;7.80;;;;;;;-4.38;69.19;101241.06;5092436;28;20062;-58
2022/01/24 07:46:42;;;;;;;20.90;9.07;;;;;;;-4.35;68.92;101240.66;5090136;28;20066;-61
2022/01/24 07:49:12;;;;;;;27.17;9.10;;;;;;;-4.33;68.60;101239.41;5090575;28;20486;-57
2022/01/24 07:51:41;;;;;;;20.20;7.53;;;;;;;-4.36;69.04;101241.66;5092117;28;20502;-58
2022/01/24 07:54:11;;;;;;;21.77;8.85;;;;;;;-4.35;68.77;101240.66;5092466;28;20159;-59
2022/01/24 07:56:39;;;;;;;21.73;10.00;;;;;;;-4.30;68.79;101243.59;5089844;28;20054;-60
2022/01/24 07:59:06;;;;;;;23.50;9.57;;;;;;;-4.27;68.78;101241.34;5089950;28;20092;-58
2022/01/24 08:01:33;;;;;;;19.05;8.55;;;;;;;-4.28;68.60;101241.53;5089203;28;20056;-56
2022/01/24 08:04:01;;;;;;;17.52;8.23;;;;;;;-4.29;68.75;101239.88;5089576;28;20051;-54
2022/01/24 08:06:28;;;;;;;21.20;9.40;;;;;;;-4.33;68.34;101228.56;5087902;28;20040;-58
2022/01/24 08:08:55;;;;;;;29.50;8.90;;;;;;;-4.22;67.95;101235.34;5090179;28;20048;-58
2022/01/24 08:11:22;;;;;;;22.77;9.05;;;;;;;-4.19;68.42;101234.94;5084353;28;20066;-59
2022/01/24 08:13:51;;;;;;;18.27;8.43;;;;;;;-4.23;68.50;101228.22;5067977;28;20056;-57
2022/01/24 08:16:20;;;;;;;28.55;9.23;;;;;;;-4.22;68.71;101224.47;5089557;28;20238;-57
2022/01/24 08:18:51;;;;;;;22.15;8.73;;;;;;;-4.21;68.26;101232.41;5090214;28;20154;-59
2022/01/24 08:21:19;;;;;;;20.73;9.55;;;;;;;-4.19;68.14;101235.78;5090861;28;20456;-56
2022/01/24 08:23:46;;;;;;;15.88;7.60;;;;;;;-4.21;67.52;101231.56;5091634;28;20474;-57
2022/01/24 08:26:14;;;;;;;19.35;8.95;;;;;;;-4.26;68.23;101234.06;5090924;28;20414;-59
2022/01/24 08:28:41;;;;;;;24.02;8.82;;;;;;;-4.24;68.29;101229.25;5088314;28;20559;-56
2022/01/24 08:31:09;;;;;;;20.35;9.07;;;;;;;-4.27;67.97;101226.91;5089317;28;20054;-57
2022/01/24 08:33:36;;;;;;;23.52;8.75;;;;;;;-4.23;67.99;101228.22;5089274;28;20541;-55
2022/01/24 08:36:04;;;;;;;26.73;11.20;;;;;;;-4.18;68.09;101225.75;5090176;28;20056;-55
2022/01/24 08:38:34;;;;;;;47.20;15.45;;;;;;;-4.16;68.21;101223.69;5088481;28;20044;-58
2022/01/24 08:41:08;;;;;;;20.25;9.95;;;;;;;-4.14;67.78;101227.88;5073493;28;20477;-60
2022/01/24 08:43:39;;;;;;;26.83;8.82;;;;;;;-4.10;67.64;101228.31;5090678;28;20528;-54
2022/01/24 08:46:07;;;;;;;24.52;9.82;;;;;;;-4.04;67.99;101225.66;5091785;28;20059;-59
2022/01/24 08:48:34;;;;;;;23.95;9.40;;;;;;;-4.02;67.50;101217.31;5090943;28;20682;-61
2022/01/24 08:51:02;;;;;;;23.27;8.85;;;;;;;-3.97;67.46;101223.84;5088282;28;20403;-60
2022/01/24 08:53:31;;;;;;;20.42;9.77;;;;;;;-3.92;67.59;101223.25;5086626;28;20053;-59
2022/01/24 08:56:00;;;;;;;20.00;8.77;;;;;;;-4.01;67.16;101222.56;5091159;28;20563;-59
2022/01/24 08:58:28;;;;;;;26.73;9.15;;;;;;;-3.94;67.72;101223.44;5090859;28;20052;-60
2022/01/24 09:00:55;;;;;;;25.42;9.35;;;;;;;-3.89;67.25;101218.25;5091279;28;20076;-61
2022/01/24 09:03:25;;;;;;;23.15;8.80;;;;;;;-3.84;67.23;101221.22;5088560;28;20101;-63
2022/01/24 09:05:53;;;;;;;18.17;7.28;;;;;;;-3.84;66.97;101207.63;5073316;28;20053;-62
2022/01/24 09:08:22;;;;;;;24.70;9.13;;;;;;;-3.79;66.72;101193.44;5088267;28;20072;-63
2022/01/24 09:10:51;;;;;;;19.35;8.55;;;;;;;-3.74;66.91;101207.25;5090500;28;20078;-63
2022/01/24 09:13:19;;;;;;;26.45;8.18;;;;;;;-3.81;66.82;101214.53;5090037;28;20088;-64
2022/01/24 09:15:47;;;;;;;20.55;8.57;;;;;;;-3.86;67.20;101195.25;5090428;28;20131;-62
2022/01/24 09:18:15;;;;;;;19.33;8.15;;;;;;;-3.95;67.29;101193.75;5089965;28;20047;-63
2022/01/24 09:20:42;;;;;;;21.02;8.55;;;;;;;-3.88;66.93;101194.63;5089076;28;20494;-63
2022/01/24 09:23:15;;;;;;;17.70;7.80;;;;;;;-4.00;67.01;101209.78;5091498;28;20093;-62
2022/01/24 09:25:42;;;;;;;21.50;8.63;;;;;;;-4.16;67.38;101204.66;5093982;28;20421;-62
2022/01/24 09:28:09;;;;;;;26.73;9.27;;;;;;;-4.19;67.55;101200.47;5076116;28;20048;-60
2022/01/24 09:30:36;;;;;;;26.08;9.77;;;;;;;-4.14;66.83;101199.88;5092952;28;20062;-61
2022/01/24 09:33:04;;;;;;;19.98;9.02;;;;;;;-4.08;66.95;101188.22;5094401;28;20044;-59
2022/01/24 09:35:31;;;;;;;21.90;9.43;;;;;;;-4.03;66.92;101196.59;5091437;28;20052;-61
2022/01/24 09:37:58;;;;;;;24.92;8.27;;;;;;;-4.02;66.92;101188.25;5092198;28;20047;-61
2022/01/24 09:40:25;;;;;;;18.65;8.35;;;;;;;-3.99;66.39;101192.47;5091785;28;20135;-57
2022/01/24 09:42:53;;;;;;;22.20;9.68;;;;;;;-3.98;66.75;101184.13;5075773;28;20048;-60
2022/01/24 09:45:20;;;;;;;22.05;8.90;;;;;;;-3.95;66.83;101188.31;5091856;28;20499;-61
2022/01/24 09:47:47;;;;;;;22.42;10.18;;;;;;;-4.01;66.46;101189.09;5094080;28;20044;-59
2022/01/24 09:50:18;;;;;;;26.42;8.35;;;;;;;-4.02;66.71;101184.72;5094088;28;20062;-60
2022/01/24 09:52:48;;;;;;;20.08;8.88;;;;;;;-4.01;66.61;101181.78;5070488;28;20518;-59
2022/01/24 09:55:18;;;;;;;19.88;8.73;;;;;;;-4.05;66.29;101176.97;5091639;28;20435;-61
2022/01/24 09:57:47;;;;;;;23.33;8.38;;;;;;;-4.08;66.47;101171.91;5094493;28;20052;-60
2022/01/24 10:00:21;;;;;;;18.35;8.02;;;;;;;-4.11;66.90;101172.31;5097685;28;20083;-58
2022/01/24 10:02:50;;;;;;;21.50;9.10;;;;;;;-4.09;66.45;101176.50;5090543;28;20058;-58
2022/01/24 10:05:42;;;;;;;23.67;10.23;;;;;;;-4.03;66.64;101166.72;5091705;28;20498;-61
2022/01/24 10:08:29;;;;;;;22.52;8.68;;;;;;;-4.04;66.08;101159.59;5086673;28;20047;-59
2022/01/24 10:11:02;;;;;;;19.05;8.32;;;;;;;-4.06;66.76;101161.66;5092636;28;20067;-59
2022/01/24 10:16:46;;;;;;;23.30;9.45;;;;;;;-4.06;66.39;101164.38;5073252;28;20067;-60
2022/01/24 10:19:22;;;;;;;19.60;8.82;;;;;;;-4.05;65.96;101155.22;5091081;28;20091;-57
2022/01/24 10:22:02;;;;;;;23.88;10.52;;;;;;;-4.04;66.54;101157.75;5081984;28;20135;-59
2022/01/24 10:24:29;;;;;;;;;;;;;;;-4.30;66.76;101156.69;5093941;28;20044;-58
2022/01/24 10:27:05;;;;;;;25.50;10.05;;;;;;;-4.32;66.49;101158.78;5092129;28;20017;-60
2022/01/24 10:29:32;;;;;;;26.40;10.00;;;;;;;-4.23;66.35;101157.59;5093798;28;20135;-56
2022/01/24 10:31:59;;;;;;;19.00;8.57;;;;;;;-4.23;66.22;101152.16;5091012;28;20049;-58
2022/01/24 10:34:35;;;;;;;24.80;9.70;;;;;;;-4.23;66.93;101142.13;5091280;28;20063;-57
2022/01/24 10:37:03;;;;;;;25.88;10.30;;;;;;;-4.16;66.47;101137.59;5083470;28;20093;-58
2022/01/24 10:45:11;;;;;;;20.40;9.07;;;;;;;-4.09;66.65;101143.06;5093662;28;20426;-57
2022/01/24 10:47:44;;;;;;;24.02;9.63;;;;;;;-4.10;66.71;101142.22;5090420;28;20046;-60
2022/01/24 10:50:19;;;;;;;20.85;8.98;;;;;;;-4.24;66.52;101129.59;5093256;28;20123;-59
2022/01/24 10:52:47;;;;;;;19.85;8.70;;;;;;;-4.37;66.66;101124.06;5092451;28;20595;-56
2022/01/24 10:55:25;;;;;;;20.17;8.88;;;;;;;-4.40;66.97;101129.06;5090468;28;20052;-60
2022/01/24 10:57:57;;;;;;;25.05;9.07;;;;;;;-4.46;66.97;101124.41;5090208;28;20481;-59
2022/01/24 11:00:28;;;;;;;21.83;9.90;;;;;;;-4.35;66.88;101116.53;5088805;28;20060;-56
2022/01/24 11:02:55;;;;;;;;;;;;;;;-4.27;66.24;101116.41;5092155;28;20567;-61
2022/01/24 11:05:25;;;;;;;16.63;7.35;;;;;;;-4.32;66.67;101115.34;5092306;28;20306;-61
2022/01/24 11:07:57;;;;;;;22.20;8.98;;;;;;;-4.47;66.49;101122.75;5092953;28;20130;-59
2022/01/24 11:10:45;;;;;;;22.10;9.63;;;;;;;-4.51;66.99;101118.72;5092382;28;20052;-59
2022/01/24 11:13:13;;;;;;;23.08;9.43;;;;;;;-4.49;67.19;101120.22;5092729;28;20056;-55
2022/01/24 11:15:45;;;;;;;23.13;9.57;;;;;;;-4.40;67.15;101113.59;5092225;28;20040;-59
2022/01/24 11:18:15;;;;;;;23.75;10.13;;;;;;;-4.32;66.96;101110.72;5089351;28;20047;-57
2022/01/24 11:20:46;;;;;;;28.00;10.23;;;;;;;-4.25;66.63;101116.22;5071638;28;20510;-61
2022/01/24 11:23:20;;;;;;;20.77;8.77;;;;;;;-4.26;66.20;101114.53;5090695;28;20047;-60
2022/01/24 11:25:49;;;;;;;21.80;9.27;;;;;;;-4.37;65.96;101117.78;5090463;28;20048;-61
2022/01/24 11:28:16;;;;;;;21.00;9.07;;;;;;;-4.35;66.20;101113.00;5092569;28;20042;-61
2022/01/24 11:30:54;;;;;;;23.67;9.63;;;;;;;-4.33;66.67;101106.34;5091828;28;20131;-58
2022/01/24 11:33:35;;;;;;;25.23;10.55;;;;;;;-4.33;66.27;101108.19;5092666;28;20048;-61
2022/01/24 11:36:05;;;;;;;28.85;9.57;;;;;;;-4.34;66.90;101106.53;5088155;28;20131;-61
2022/01/24 11:38:35;;;;;;;24.13;9.50;;;;;;;-4.28;66.26;101100.31;5089479;28;20416;-61
2022/01/24 11:41:32;;;;;;;23.52;9.95;;;;;;;-4.26;66.38;101098.25;5087871;28;20052;-62
2022/01/24 11:44:16;;;;;;;21.55;8.63;;;;;;;-4.23;66.37;101092.41;5088034;28;20044;-61
2022/01/24 11:46:48;;;;;;;27.02;10.55;;;;;;;-4.32;66.47;101091.72;5089605;28;20043;-61
2022/01/24 11:49:27;;;;;;;23.48;8.77;;;;;;;-4.37;66.63;101080.63;5088583;28;20044;-58
2022/01/24 11:52:02;;;;;;;26.98;10.88;;;;;;;-4.39;66.93;101087.28;5088232;28;20068;-57
2022/01/24 11:54:48;;;;;;;31.15;11.30;;;;;;;-4.33;66.96;101083.75;5089871;28;20556;-61
2022/01/24 11:57:58;;;;;;;24.63;8.85;;;;;;;-4.33;66.89;101075.59;5092052;28;20486;-60
2022/01/24 12:00:27;;;;;;;26.75;10.80;;;;;;;-4.38;66.61;101078.09;5009714;28;21035;-59
2022/01/24 12:02:57;;;;;;;24.80;9.57;;;;;;;-4.32;67.23;101077.31;5074560;28;20490;-60
2022/01/24 12:05:53;;;;;;;;;;;;;;;-4.27;66.31;101069.38;5087959;28;20090;-60
2022/01/24 12:08:42;;;;;;;23.00;9.63;;;;;;;-4.22;66.79;101062.31;5091509;28;19924;-57
2022/01/24 12:11:14;;;;;;;23.95;10.02;;;;;;;-4.15;66.50;101062.34;5088615;28;20078;-58
2022/01/24 12:13:45;;;;;;;25.90;10.15;;;;;;;-4.17;66.90;101059.00;5086822;28;20079;-60
2022/01/24 12:16:15;;;;;;;23.00;9.35;;;;;;;-4.35;66.60;101048.66;5089829;28;20154;-59
2022/01/24 12:18:45;;;;;;;25.80;11.20;;;;;;;-4.40;67.17;101047.59;5070319;28;20054;-58
2022/01/24 12:21:24;;;;;;;27.42;9.93;;;;;;;-4.32;66.86;101050.16;5090548;28;20070;-61
2022/01/24 12:23:54;;;;;;;23.40;10.63;;;;;;;-4.27;66.36;101047.66;5091356;28;20514;-59
2022/01/24 12:26:43;;;;;;;30.48;10.82;;;;;;;-4.21;66.40;101046.84;5092153;28;20414;-59
2022/01/24 12:29:25;;;;;;;26.05;10.63;;;;;;;-4.23;66.74;101054.38;5091634;28;20402;-60
2022/01/24 12:31:58;;;;;;;25.20;10.13;;;;;;;-4.26;66.61;101043.91;5091343;28;20052;-58
2022/01/24 12:34:39;;;;;;;33.75;11.23;;;;;;;-4.24;66.70;101047.25;5092050;28;20048;-59
2022/01/24 12:37:08;;;;;;;35.65;11.02;;;;;;;-4.30;67.17;101038.03;5091349;28;20415;-59
2022/01/24 12:39:45;;;;;;;28.38;10.73;;;;;;;-4.34;66.43;101052.22;5088895;28;20041;-58
2022/01/24 12:42:33;;;;;;;26.50;10.23;;;;;;;-4.36;66.98;101057.00;5088705;28;20048;-54
2022/01/24 12:47:56;;;;;;;29.27;10.98;;;;;;;-4.35;66.86;101055.97;5088621;28;20395;-59
2022/01/24 12:50:24;;;;;;;32.42;10.00;;;;;;;-4.44;67.23;101060.72;5089361;28;20035;-59
2022/01/24 12:52:53;;;;;;;26.70;11.25;;;;;;;-4.53;67.36;101058.38;5071815;28;20048;-59
2022/01/24 12:55:20;;;;;;;23.45;10.13;;;;;;;-4.54;66.58;101062.09;5088700;28;20071;-54
2022/01/24 12:57:47;;;;;;;23.85;8.93;;;;;;;-4.58;67.76;101055.41;5091796;28;20494;-60
2022/01/24 13:00:18;;;;;;;23.70;10.43;;;;;;;-4.79;67.08;101063.59;5099407;28;20130;-60
2022/01/24 13:02:45;;;;;;;27.80;11.60;;;;;;;-4.79;67.17;101069.03;5093630;28;20052;-59
2022/01/24 13:05:20;;;;;;;22.23;9.80;;;;;;;-4.77;67.51;101062.34;5093865;28;20062;-57
2022/01/24 13:07:51;;;;;;;25.38;9.98;;;;;;;-4.80;67.38;101053.78;5092026;28;20470;-58
2022/01/24 13:10:22;;;;;;;;;;;;;;;-4.80;67.11;101049.16;5092991;28;20056;-58
2022/01/24 13:13:06;;;;;;;34.92;10.45;;;;;;;-4.82;67.57;101045.84;5091318;28;20010;-58
2022/01/24 13:21:24;;;;;;;26.90;11.13;;;;;;;-4.82;67.35;101047.69;5092230;28;20412;-60
2022/01/24 13:24:00;;;;;;;26.27;11.07;;;;;;;-4.80;67.13;101046.47;5090055;28;20056;-57
2022/01/24 13:26:27;;;;;;;25.92;10.60;;;;;;;-4.83;67.36;101052.28;5092361;28;20046;-56
2022/01/24 13:29:05;;;;;;;26.25;9.73;;;;;;;-4.96;67.28;101056.75;5089693;28;20047;-57
2022/01/24 13:31:32;;;;;;;32.13;10.50;;;;;;;-5.00;67.76;101047.34;5090794;28;20052;-58